Cape Lookout Natl Seashore, North Carolina
Current Conditions -  °F | °C
As of 6:56 PM on Friday 21 Nov 2014 (Local Time) from KNBT Reporting Station
Clear Clear  
Wind Chill: 39°   Ceiling: Unl
Heat Index: 44°   Visibility: NA
Dew Point: 20°   Wind: 10mph
Humidity: 38%   Direction: 20°NNE
Pressure: 30.51"   Gusts: NA
Location:  34.88°N, 76.29°W
Report Text: KNBT 212356Z AUTO 02009KT CLR 07/M07 A3051 RMK AO2 SLP336 6//// T00671067 10100 20067 51026 PNO $
Loading
Personal Weather Stations






























Interactive Weather Map New forecast layout! Learn more

10-Day Weather Forecast

Advertisements
Track Severe Weather on mobile